LKKB 200000Z 20010KT CAVOK 19/10 Q1021 LKKB 192300Z 25004KT CAVOK 19/09 Q1021 LKKB 192200Z 17008KT CAVOK 20/09 Q1021 LKKB 192100Z 16008KT CAVOK 20/09 Q1020 LKKB 192000Z 18004KT CAVOK 21/08 Q1021 NOSIG LKKB 191900Z 15005KT CAVOK 23/07 Q1020 NOSIG LKKB 191800Z 15005KT CAVOK 24/06 Q1020 NOSIG LKKB 191700Z 15008KT CAVOK 26/04 Q1020 NOSIG LKKB 191600Z 16006KT 120V190 CAVOK 27/01 Q1020 NOSIG LKKB 191500Z 14006KT 090V200 CAVOK 27/05 Q1021 NOSIG LKKB 191400Z 14005KT 050V180 CAVOK 26/04 Q1022 NOSIG LKKB 191300Z VRB02KT CAVOK 25/04 Q1022 NOSIG LKKB 191200Z 11006G16KT 050V160 CAVOK 24/05 Q1023 NOSIG LKKB 191100Z 11006KT 050V180 CAVOK 23/05 Q1024 NOSIG LKKB 191000Z 07005KT 020V120 CAVOK 20/06 Q1024 NOSIG LKKB 190900Z 08006KT 040V120 CAVOK 19/05 Q1025 NOSIG LKKB 190800Z 07004KT 360V160 CAVOK 17/04 Q1025 NOSIG LKKB 190700Z 05005KT 010V090 CAVOK 15/05 Q1026 NOSIG LKKB 190600Z 04004KT CAVOK 13/05 Q1026 NOSIG LKKB 190500Z 07003KT CAVOK 11/04 Q1025 NOSIG LKKB 190400Z 08003KT CAVOK 10/03 Q1025 NOSIG LKKB 190300Z 06003KT CAVOK 09/04 Q1025 LKKB 190200Z VRB02KT CAVOK 11/04 Q1025 LKKB 190100Z 20007KT CAVOK 11/05 Q1025 LKKB 190000Z 19009KT CAVOK 13/05 Q1025 LKKB 182300Z 15005KT CAVOK 13/06 Q1025 NOSIG LKKB 182200Z VRB01KT CAVOK 13/06 Q1025 NOSIG LKKB 182100Z 12006KT CAVOK 15/06 Q1025 NOSIG LKKB 182000Z 10008KT CAVOK 17/05 Q1025 NOSIG LKKB 181900Z 09008KT CAVOK 18/05 Q1025 NOSIG LKKB 181800Z 08007KT CAVOK 20/06 Q1025 NOSIG LKKB 181700Z 07007KT CAVOK 21/07 Q1025 NOSIG LKKB 181600Z 07009KT CAVOK 21/07 Q1025 NOSIG LKKB 181500Z 09007KT 050V140 CAVOK 22/07 Q1025 NOSIG LKKB 181400Z 07008KT 030V120 CAVOK 22/08 Q1026 NOSIG LKKB 181300Z 08006KT 010V150 CAVOK 21/07 Q1026 NOSIG

METAR Messwerte "KBELY" LKKB

Zurück zur Übersicht

Ortsname
Ländercode / m ü. NN
Zeit Temperatur Taupunkt Rel.
Luftfeuchte
Luftdruck:
Altimeter
NN
Station
Wind in Beaufort
(Knoten)
Sichtweite
(Meter)
Wolken
(Meter über Grund)
Wettererscheinung
KBELY
CZ 281
Fr 20.05. 02:00191056 %1021
1021
987
SSW 3 (10)>= 10000Nicht signifikant 
KBELY
CZ 281
Fr 20.05. 01:0019952 %1021
1021
987
WSW 2 (4)>= 10000Nicht signifikant 
KBELY
CZ 281
Fr 20.05. 00:0020949 %1021
1020
987
S 3 (8)>= 10000Nicht signifikant 
KBELY
CZ 281
Do 19.05. 23:0020949 %1020
1019
987
SSO 3 (8)>= 10000Nicht signifikant 
KBELY
CZ 281
Do 19.05. 22:0021843 %1021
1020
987
S 2 (4)>= 10000Nicht signifikant 
KBELY
CZ 281
Do 19.05. 21:0023736 %1020
1019
987
SSO 2 (5)>= 10000Nicht signifikant 
KBELY
CZ 281
Do 19.05. 20:0024631 %1020
1019
987
SSO 2 (5)>= 10000Nicht signifikant 
KBELY
CZ 281
Do 19.05. 19:0026424 %1020
1019
987
SSO 3 (8)>= 10000Nicht signifikant 
KBELY
CZ 281
Do 19.05. 18:0027118 %1020
1019
987
SSO 2 (6)
OSO - S
>= 10000Nicht signifikant 
KBELY
CZ 281
Do 19.05. 17:0027524 %1021
1020
987
SO 2 (6)
O - SSW
>= 10000Nicht signifikant 
KBELY
CZ 281
Do 19.05. 16:0026424 %1022
1021
988
SO 2 (5)
NO - S
>= 10000Nicht signifikant 
KBELY
CZ 281
Do 19.05. 15:0025426 %1022
1021
988
Uml 1 (2)>= 10000Nicht signifikant 
KBELY
CZ 281
Do 19.05. 14:0024529 %1023
1022
989
OSO 2 (6) - 5 (16)
NO - SSO
>= 10000Nicht signifikant 
KBELY
CZ 281
Do 19.05. 13:0023531 %1024
1023
990
OSO 2 (6)
NO - S
>= 10000Nicht signifikant 
KBELY
CZ 281
Do 19.05. 12:0020640 %1024
1023
990
ONO 2 (5)
NNO - OSO
>= 10000Nicht signifikant 
KBELY
CZ 281
Do 19.05. 11:0019540 %1025
1025
991
O 2 (6)
NO - OSO
>= 10000Nicht signifikant 
KBELY
CZ 281
Do 19.05. 10:0017442 %1025
1025
991
ONO 2 (4)
N - SSO
>= 10000Nicht signifikant 
KBELY
CZ 281
Do 19.05. 09:0015551 %1026
1026
992
NO 2 (5)
N - O
>= 10000Nicht signifikant 
KBELY
CZ 281
Do 19.05. 08:0013558 %1026
1026
992
NO 2 (4)>= 10000Nicht signifikant 
KBELY
CZ 281
Do 19.05. 07:0011462 %1025
1026
991
ONO 2 (3)>= 10000Nicht signifikant 
KBELY
CZ 281
Do 19.05. 06:0010362 %1025
1026
991
O 2 (3)>= 10000Nicht signifikant 
KBELY
CZ 281
Do 19.05. 05:009471 %1025
1026
991
ONO 2 (3)>= 10000Nicht signifikant 
KBELY
CZ 281
Do 19.05. 04:0011462 %1025
1026
991
Uml 1 (2)>= 10000Nicht signifikant 
KBELY
CZ 281
Do 19.05. 03:0011566 %1025
1026
991
SSW 3 (7)>= 10000Nicht signifikant 
KBELY
CZ 281
Do 19.05. 02:0013558 %1025
1025
991
S 3 (9)>= 10000Nicht signifikant 
KBELY
CZ 281
Do 19.05. 01:0013662 %1025
1025
991
SSO 2 (5)>= 10000Nicht signifikant 
KBELY
CZ 281
Do 19.05. 00:0013662 %1025
1025
991
Uml 1 (1)>= 10000Nicht signifikant 
KBELY
CZ 281
Mi 18.05. 23:0015655 %1025
1025
991
OSO 2 (6)>= 10000Nicht signifikant 
KBELY
CZ 281
Mi 18.05. 22:0017545 %1025
1025
991
O 3 (8)>= 10000Nicht signifikant 
KBELY
CZ 281
Mi 18.05. 21:0018542 %1025
1025
991
O 3 (8)>= 10000Nicht signifikant 
KBELY
CZ 281
Mi 18.05. 20:0020640 %1025
1024
991
O 3 (7)>= 10000Nicht signifikant 
KBELY
CZ 281
Mi 18.05. 19:0021740 %1025
1024
991
ONO 3 (7)>= 10000Nicht signifikant 
KBELY
CZ 281
Mi 18.05. 18:0021740 %1025
1024
991
ONO 3 (9)>= 10000Nicht signifikant 
KBELY
CZ 281
Mi 18.05. 17:0022738 %1025
1024
991
O 3 (7)
NO - SO
>= 10000Nicht signifikant 
KBELY
CZ 281
Mi 18.05. 16:0022841 %1026
1025
992
ONO 3 (8)
NNO - OSO
>= 10000Nicht signifikant 
KBELY
CZ 281
Mi 18.05. 15:0021740 %1026
1025
992
O 2 (6)
N - SSO
>= 10000Nicht signifikant 

Altimeter: Einstellung am Altimeter (Höhenmesser), die Höhe 0 muss auf diesen Luftdruckwert zeigen, damit das Gerät die Stationshöhe richtig anzeigt.

NN: Luftdruck reduziert auf "Normal Null", auf Meereshöhe, dieser von der Temperatur abhängige Wert wird bisweilen unkorrekt einfach als "Luftdruck" bezeichnet. Eigentlich nur eine fiktive Größe, die es erlaubt, Stationen auf unterschiedlichen Höhen miteinander zu vergleichen.

Station: Realer Luftdruck an der Station.